createdAt,value
2019-03-08T00:01:37.085Z,100115.73
2019-03-08T00:04:08.107Z,100106.76
2019-03-08T00:06:39.042Z,100105.89
2019-03-08T00:09:10.042Z,100101.07
2019-03-08T00:11:41.130Z,100104.13
2019-03-08T00:14:12.894Z,100100.31
2019-03-08T00:16:44.959Z,100105.97
2019-03-08T00:19:15.850Z,100083.70
2019-03-08T00:21:46.774Z,100099.47
2019-03-08T00:24:17.689Z,100115.06
2019-03-08T00:26:48.633Z,100117.88
2019-03-08T00:29:19.720Z,100102.38
2019-03-08T00:31:50.729Z,100096.94
2019-03-08T00:34:21.692Z,100093.69
2019-03-08T00:36:52.636Z,100096.66
2019-03-08T00:39:23.574Z,100088.92
2019-03-08T00:41:54.759Z,100085.00
2019-03-08T00:44:25.650Z,100087.32
2019-03-08T00:46:56.630Z,100070.49
2019-03-08T00:49:27.605Z,100066.52
2019-03-08T00:51:58.528Z,100073.66
2019-03-08T00:54:29.744Z,100066.70
2019-03-08T00:57:00.737Z,100069.87
2019-03-08T00:59:31.653Z,100064.75
2019-03-08T01:02:02.591Z,100058.94
2019-03-08T01:04:34.583Z,100062.64
2019-03-08T01:07:05.589Z,100061.83
2019-03-08T01:09:36.494Z,100072.89
2019-03-08T01:12:07.621Z,100069.65
2019-03-08T01:14:39.459Z,100050.55
2019-03-08T01:17:10.588Z,100078.37
2019-03-08T01:19:41.637Z,100057.70
2019-03-08T01:22:12.570Z,100068.71
2019-03-08T01:24:43.486Z,100063.00
2019-03-08T01:27:14.445Z,100069.12
2019-03-08T01:29:45.388Z,100060.94
2019-03-08T01:32:16.413Z,100057.94
2019-03-08T01:34:47.341Z,100054.37
2019-03-08T01:37:18.268Z,100049.27
2019-03-08T01:39:49.167Z,100044.02
2019-03-08T01:42:20.126Z,100044.25
2019-03-08T01:44:51.123Z,100039.98
2019-03-08T01:47:23.194Z,100043.55
2019-03-08T01:49:54.118Z,100053.81
2019-03-08T01:52:26.128Z,100044.53
2019-03-08T01:54:57.115Z,100039.77
2019-03-08T01:57:28.070Z,100038.06
2019-03-08T01:59:59.008Z,100036.86
2019-03-08T02:02:29.943Z,100036.40
2019-03-08T02:05:00.861Z,100035.20
2019-03-08T02:07:33.273Z,100041.30
2019-03-08T02:10:07.089Z,100029.42
2019-03-08T02:12:38.087Z,100034.80
2019-03-08T02:15:15.255Z,100037.67
2019-03-08T02:17:46.327Z,100026.97
2019-03-08T02:20:20.011Z,100036.19
2019-03-08T02:22:51.036Z,100027.48
2019-03-08T02:25:22.030Z,100032.67
2019-03-08T02:27:52.944Z,100025.31
2019-03-08T02:30:23.835Z,100022.36
2019-03-08T02:32:54.851Z,100030.48
2019-03-08T02:35:25.744Z,100031.24
2019-03-08T02:37:56.707Z,100028.64
2019-03-08T02:40:29.752Z,100034.11
2019-03-08T02:43:01.505Z,100033.13
2019-03-08T02:45:32.477Z,100039.28
2019-03-08T02:48:03.432Z,100040.03
2019-03-08T02:50:34.443Z,100029.05
2019-03-08T02:53:05.366Z,100027.32
2019-03-08T02:55:36.459Z,100024.28
2019-03-08T02:58:07.419Z,100023.92
2019-03-08T03:00:44.520Z,100022.60
2019-03-08T03:03:15.606Z,100020.13
2019-03-08T03:05:46.536Z,100018.87
2019-03-08T03:08:17.550Z,100018.85
2019-03-08T03:10:48.446Z,100023.64
2019-03-08T03:13:19.478Z,100019.79
2019-03-08T03:15:51.230Z,100014.42
2019-03-08T03:18:22.626Z,100013.67
2019-03-08T03:20:53.534Z,100014.20
2019-03-08T03:23:24.552Z,100009.31
2019-03-08T03:25:55.451Z,100007.59
2019-03-08T03:28:26.393Z,100008.62
2019-03-08T03:30:57.696Z,100008.05
2019-03-08T03:33:28.646Z,100011.27
2019-03-08T03:35:59.646Z,100024.60
2019-03-08T03:38:30.697Z,100026.28
2019-03-08T03:41:01.711Z,100018.16
2019-03-08T03:43:33.014Z,100020.80
2019-03-08T03:46:03.903Z,100022.19
2019-03-08T03:48:34.864Z,100023.00
2019-03-08T03:51:05.782Z,100017.81
2019-03-08T03:53:36.794Z,100013.73
2019-03-08T03:56:08.129Z,100013.73
2019-03-08T03:58:39.096Z,100007.67
2019-03-08T04:01:17.668Z,100014.25
2019-03-08T04:03:48.622Z,100009.12
2019-03-08T04:06:19.517Z,100000.66
2019-03-08T04:08:50.474Z,100013.43
2019-03-08T04:11:21.374Z,100013.72
2019-03-08T04:13:52.329Z,100015.22
2019-03-08T04:16:24.169Z,99997.16
2019-03-08T04:18:55.533Z,99995.89
2019-03-08T04:21:26.361Z,99994.22
2019-03-08T04:23:57.183Z,100010.14
2019-03-08T04:26:29.197Z,100015.33
2019-03-08T04:29:00.152Z,100000.49
2019-03-08T04:31:31.444Z,100002.09
2019-03-08T04:34:04.008Z,100013.56
2019-03-08T04:36:35.106Z,100002.98
2019-03-08T04:39:06.311Z,100010.14
2019-03-08T04:41:37.449Z,100022.34
2019-03-08T04:44:08.711Z,100009.12
2019-03-08T04:46:39.768Z,100014.81
2019-03-08T04:49:10.700Z,100007.63
2019-03-08T04:51:41.693Z,100000.20
2019-03-08T04:54:12.652Z,100007.63
2019-03-08T04:56:43.720Z,100018.51
2019-03-08T04:59:14.669Z,100020.81
2019-03-08T05:01:45.576Z,100021.66
2019-03-08T05:04:16.661Z,100014.75
2019-03-08T05:06:47.560Z,100015.98
2019-03-08T05:09:19.319Z,100017.64
2019-03-08T05:11:50.224Z,100016.95
2019-03-08T05:14:21.189Z,100022.34
2019-03-08T05:16:53.005Z,100020.98
2019-03-08T05:19:24.183Z,100016.89
2019-03-08T05:21:55.187Z,100011.77
2019-03-08T05:24:26.141Z,100023.63
2019-03-08T05:26:57.120Z,100022.07
2019-03-08T05:29:28.158Z,100021.38
2019-03-08T05:31:59.079Z,100012.69
2019-03-08T05:34:30.039Z,100012.83
2019-03-08T05:37:01.027Z,100016.32
2019-03-08T05:39:31.996Z,100022.84
2019-03-08T05:42:02.906Z,100037.16
2019-03-08T05:44:33.927Z,100036.65
2019-03-08T05:47:04.943Z,100041.78
2019-03-08T05:49:35.923Z,100037.12
2019-03-08T05:52:06.819Z,100030.65
2019-03-08T05:54:37.841Z,100038.55
2019-03-08T05:57:08.786Z,100026.82
2019-03-08T05:59:40.525Z,100022.80
2019-03-08T06:02:11.407Z,100024.20
2019-03-08T06:04:42.440Z,100026.83
2019-03-08T06:07:13.375Z,100027.72
2019-03-08T06:09:44.207Z,100037.44
2019-03-08T06:12:15.386Z,100039.45
2019-03-08T06:14:47.392Z,100045.76
2019-03-08T06:17:19.293Z,100049.27
2019-03-08T06:19:50.304Z,100050.53
2019-03-08T06:22:21.308Z,100045.57
2019-03-08T06:24:52.586Z,100046.87
2019-03-08T06:27:23.523Z,100042.03
2019-03-08T06:29:55.036Z,100039.17
2019-03-08T06:32:25.985Z,100037.33
2019-03-08T06:34:57.096Z,100042.48
2019-03-08T06:37:29.316Z,100035.68
2019-03-08T06:40:00.305Z,100028.64
2019-03-08T06:42:31.214Z,100026.48
2019-03-08T06:45:02.194Z,100041.01
2019-03-08T06:47:33.235Z,100052.76
2019-03-08T06:50:06.775Z,100038.50
2019-03-08T06:52:37.738Z,100048.99
2019-03-08T06:55:11.021Z,100050.93
2019-03-08T06:57:42.000Z,100067.86
2019-03-08T07:00:30.283Z,100073.48
2019-03-08T07:03:01.355Z,100068.33
2019-03-08T07:05:32.325Z,100069.59
2019-03-08T07:08:03.236Z,100064.78
2019-03-08T07:10:36.230Z,100059.34
2019-03-08T07:13:07.136Z,100057.95
2019-03-08T07:15:38.218Z,100056.00
2019-03-08T07:18:12.871Z,100044.58
2019-03-08T07:20:44.513Z,100048.88
2019-03-08T07:23:27.702Z,100056.32
2019-03-08T07:26:07.171Z,100059.98
2019-03-08T07:28:43.590Z,100056.47
2019-03-08T07:31:32.503Z,100049.75
2019-03-08T07:34:05.197Z,100056.32
2019-03-08T07:36:44.722Z,100061.11
2019-03-08T07:39:23.251Z,100055.89
2019-03-08T07:42:01.964Z,100046.12
2019-03-08T07:44:34.572Z,100039.29
2019-03-08T07:47:13.038Z,100033.09
2019-03-08T07:49:48.218Z,100032.00
2019-03-08T07:52:37.444Z,100027.83
2019-03-08T07:55:19.543Z,100029.21
2019-03-08T07:57:54.961Z,100037.48
2019-03-08T08:00:27.580Z,100032.17
2019-03-08T08:03:05.979Z,100034.36
2019-03-08T08:05:58.260Z,100025.91
2019-03-08T08:08:35.937Z,100030.42
2019-03-08T08:11:08.528Z,100036.49
2019-03-08T08:13:59.011Z,100034.84
2019-03-08T08:16:31.685Z,100028.89
2019-03-08T08:19:14.437Z,100020.41
2019-03-08T08:22:04.195Z,100014.50
2019-03-08T08:24:52.791Z,100019.03
2019-03-08T08:27:25.337Z,100013.81
2019-03-08T08:30:03.932Z,100015.53
2019-03-08T08:32:40.788Z,100011.93
2019-03-08T08:35:16.461Z,100011.00
2019-03-08T08:37:55.467Z,100001.12
2019-03-08T08:40:31.080Z,100017.48
2019-03-08T08:43:04.176Z,100015.68
2019-03-08T08:45:43.376Z,100014.20
2019-03-08T08:48:24.952Z,100006.63
2019-03-08T08:51:12.653Z,100006.53
2019-03-08T08:54:03.597Z,100003.83
2019-03-08T08:56:52.195Z,99992.39
2019-03-08T08:59:39.778Z,99997.20
2019-03-08T09:02:18.383Z,100001.23
2019-03-08T09:04:53.913Z,100003.24
2019-03-08T09:07:33.352Z,100003.88
2019-03-08T09:10:08.848Z,100010.77
2019-03-08T09:12:44.518Z,100004.57
2019-03-08T09:15:17.350Z,100001.05
2019-03-08T09:18:06.189Z,100003.20
2019-03-08T09:20:39.830Z,99993.98
2019-03-08T09:23:12.721Z,99994.31
2019-03-08T09:26:01.660Z,99991.11
2019-03-08T09:28:34.343Z,99989.97
2019-03-08T09:31:18.998Z,99985.69
2019-03-08T09:33:54.388Z,99988.45
2019-03-08T09:36:32.798Z,99985.76
2019-03-08T09:39:05.674Z,99984.49
2019-03-08T09:41:57.493Z,99983.89
2019-03-08T09:44:32.925Z,99982.96
2019-03-08T09:47:05.493Z,99979.88
2019-03-08T09:49:43.006Z,99980.73
2019-03-08T09:52:15.480Z,99973.91
2019-03-08T09:54:50.982Z,99974.14
2019-03-08T09:57:32.255Z,99968.64
2019-03-08T10:00:11.300Z,99974.59
2019-03-08T10:02:56.267Z,99962.17
2019-03-08T10:05:31.597Z,99960.61
2019-03-08T10:08:20.479Z,99963.44
2019-03-08T10:10:55.998Z,99964.50
2019-03-08T10:13:28.624Z,99964.48
2019-03-08T10:16:01.170Z,99958.87
2019-03-08T10:18:33.919Z,99963.24
2019-03-08T10:21:13.322Z,99958.59
2019-03-08T10:23:57.532Z,99945.00
2019-03-08T10:26:31.632Z,99941.22
2019-03-08T10:29:13.594Z,99937.12
2019-03-08T10:31:46.501Z,99947.95
2019-03-08T10:34:25.375Z,99942.51
2019-03-08T10:37:02.836Z,99949.38
2019-03-08T10:39:41.709Z,99935.41
2019-03-08T10:42:21.161Z,99932.00
2019-03-08T10:44:53.976Z,99919.66
2019-03-08T10:47:26.883Z,99930.16
2019-03-08T10:50:20.499Z,99915.08
2019-03-08T10:53:01.851Z,99922.62
2019-03-08T10:55:40.285Z,99932.49
2019-03-08T10:58:22.403Z,99922.83
2019-03-08T11:00:58.138Z,99922.81
2019-03-08T11:03:31.624Z,99930.95
2019-03-08T11:06:21.747Z,99925.45
2019-03-08T11:08:54.699Z,99929.86
2019-03-08T11:11:30.322Z,99927.70
2019-03-08T11:14:03.075Z,99927.95
2019-03-08T11:16:52.055Z,99920.36
2019-03-08T11:19:27.818Z,99917.36
2019-03-08T11:22:11.383Z,99917.50
2019-03-08T11:25:07.791Z,99904.59
2019-03-08T11:27:33.631Z,99900.83
2019-03-08T11:30:15.815Z,99899.17
2019-03-08T11:33:06.793Z,99899.67
2019-03-08T11:35:39.888Z,99898.34
2019-03-08T11:38:14.848Z,99890.52
2019-03-08T11:40:50.393Z,99891.78
2019-03-08T11:43:35.470Z,99908.43
2019-03-08T11:46:20.579Z,99899.16
2019-03-08T11:48:56.214Z,99900.03
2019-03-08T11:51:34.980Z,99901.37
2019-03-08T11:54:11.242Z,99903.43
2019-03-08T11:56:56.209Z,99903.03
2019-03-08T11:59:36.667Z,99900.34
2019-03-08T12:02:12.724Z,99895.94
2019-03-08T12:04:45.602Z,99890.36
2019-03-08T12:07:22.250Z,99887.23
2019-03-08T12:10:03.915Z,99890.02
2019-03-08T12:12:49.177Z,99885.80
2019-03-08T12:15:37.365Z,99882.09
2019-03-08T12:18:10.558Z,99880.50
2019-03-08T12:20:46.568Z,99891.28
2019-03-08T12:23:22.782Z,99885.71
2019-03-08T12:26:12.069Z,99883.51
2019-03-08T12:28:44.846Z,99885.30
2019-03-08T12:31:17.784Z,99879.34
2019-03-08T12:33:56.693Z,99879.02
2019-03-08T12:36:29.434Z,99872.81
2019-03-08T12:39:18.949Z,99870.22
2019-03-08T12:41:51.736Z,99874.30
2019-03-08T12:44:24.612Z,99861.28
2019-03-08T12:46:57.500Z,99860.66
2019-03-08T12:49:30.411Z,99861.19
2019-03-08T12:52:03.254Z,99836.28
2019-03-08T12:54:36.361Z,99863.63
2019-03-08T12:57:15.558Z,99854.34
2019-03-08T12:59:54.806Z,99859.00
2019-03-08T13:02:36.547Z,99863.98
2019-03-08T13:05:09.652Z,99870.49
2019-03-08T13:08:00.733Z,99867.31
2019-03-08T13:10:32.279Z,99871.50
2019-03-08T13:13:03.596Z,99879.47
2019-03-08T13:15:34.965Z,99877.41
2019-03-08T13:18:06.433Z,99878.94
2019-03-08T13:20:38.522Z,99872.25
2019-03-08T13:23:09.943Z,99884.95
2019-03-08T13:25:42.239Z,99877.94
2019-03-08T13:28:13.619Z,99878.23
2019-03-08T13:30:45.023Z,99883.44
2019-03-08T13:33:16.570Z,99892.34
2019-03-08T13:35:47.844Z,99879.50
2019-03-08T13:38:18.847Z,99885.56
2019-03-08T13:40:49.801Z,99884.97
2019-03-08T13:43:21.001Z,99871.81
2019-03-08T13:45:53.817Z,99876.75
2019-03-08T13:48:25.240Z,99872.48
2019-03-08T13:50:56.278Z,99863.45
2019-03-08T13:53:27.255Z,99875.58
2019-03-08T13:55:58.507Z,99876.88
2019-03-08T13:58:29.592Z,99871.70
2019-03-08T14:01:00.559Z,99881.66
2019-03-08T14:03:32.826Z,99896.84
2019-03-08T14:06:03.794Z,99885.32
2019-03-08T14:08:34.706Z,99879.58
2019-03-08T14:11:05.866Z,99874.69
2019-03-08T14:13:37.857Z,99884.31
2019-03-08T14:16:08.994Z,99884.27
2019-03-08T14:18:40.055Z,99880.92
2019-03-08T14:21:11.021Z,99881.37
2019-03-08T14:23:42.126Z,99881.59
2019-03-08T14:26:14.089Z,99884.87
2019-03-08T14:28:45.165Z,99883.52
2019-03-08T14:31:23.529Z,99883.60
2019-03-08T14:33:54.896Z,99886.48
2019-03-08T14:36:26.163Z,99870.55
2019-03-08T14:38:57.298Z,99868.20
2019-03-08T14:41:47.836Z,99879.55
2019-03-08T14:44:26.463Z,99876.86
2019-03-08T14:46:57.579Z,99876.48
2019-03-08T14:49:28.680Z,99882.05
2019-03-08T14:51:59.792Z,99886.26
2019-03-08T14:54:30.741Z,99890.61
2019-03-08T14:57:01.839Z,99887.16
2019-03-08T14:59:32.933Z,99894.91
2019-03-08T15:02:03.977Z,99890.23
2019-03-08T15:04:35.008Z,99895.42
2019-03-08T15:07:06.023Z,99893.69
2019-03-08T15:09:37.167Z,99898.86
2019-03-08T15:12:16.314Z,99893.33
2019-03-08T15:14:41.349Z,99896.08
2019-03-08T15:17:13.357Z,99895.70
2019-03-08T15:19:45.414Z,99897.53
2019-03-08T15:22:17.560Z,99898.39
2019-03-08T15:24:48.723Z,99901.17
2019-03-08T15:27:22.990Z,99907.67
2019-03-08T15:29:54.901Z,99908.42
2019-03-08T15:32:29.153Z,99895.51
2019-03-08T15:35:01.709Z,99894.82
2019-03-08T15:37:33.053Z,99894.82
2019-03-08T15:40:05.092Z,99905.16
2019-03-08T15:42:36.908Z,99900.14
2019-03-08T15:45:10.665Z,99899.63
2019-03-08T15:47:41.689Z,99908.62
2019-03-08T15:50:15.377Z,99911.88
2019-03-08T15:52:46.638Z,99909.47
2019-03-08T15:55:18.887Z,99921.41
2019-03-08T15:57:50.271Z,99911.91
2019-03-08T16:00:22.188Z,99914.38
2019-03-08T16:02:55.621Z,99918.97
2019-03-08T16:05:28.181Z,99919.78
2019-03-08T16:08:01.854Z,99921.10
2019-03-08T16:10:32.138Z,99916.32
2019-03-08T16:13:03.631Z,99918.05
2019-03-08T16:15:47.547Z,99929.11
2019-03-08T16:18:23.359Z,99931.83
2019-03-08T16:20:57.605Z,99927.08
2019-03-08T16:23:32.576Z,99932.02
2019-03-08T16:26:09.869Z,99929.34
2019-03-08T16:28:47.309Z,99933.36
2019-03-08T16:31:35.440Z,99935.43
2019-03-08T16:34:14.458Z,99946.07
2019-03-08T16:36:55.307Z,99948.84
2019-03-08T16:39:31.715Z,99946.27
2019-03-08T16:42:15.370Z,99946.27
2019-03-08T16:44:52.654Z,99951.42
2019-03-08T16:47:47.043Z,99961.52
2019-03-08T16:50:22.289Z,99962.99
2019-03-08T16:53:00.173Z,99936.55
2019-03-08T16:55:36.700Z,99951.42
2019-03-08T16:58:25.503Z,99950.76
2019-03-08T17:01:11.129Z,99948.27
2019-03-08T17:03:59.455Z,99946.67
2019-03-08T17:06:40.188Z,99936.77
2019-03-08T17:09:17.596Z,99930.92
2019-03-08T17:11:53.711Z,99928.25
2019-03-08T17:14:35.357Z,99929.97
2019-03-08T17:17:27.268Z,99923.06
2019-03-08T17:20:07.150Z,99916.22
2019-03-08T17:22:42.942Z,99915.63
2019-03-08T17:25:23.632Z,99910.88
2019-03-08T17:28:10.081Z,99914.77
2019-03-08T17:30:44.370Z,99904.73
2019-03-08T17:33:37.691Z,99906.30
2019-03-08T17:36:20.054Z,99897.48
2019-03-08T17:38:54.967Z,99903.62
2019-03-08T17:41:32.483Z,99912.83
2019-03-08T17:44:20.483Z,99917.44
2019-03-08T17:46:56.133Z,99921.27
2019-03-08T17:49:46.527Z,99927.33
2019-03-08T17:52:25.601Z,99925.89
2019-03-08T17:55:04.660Z,99916.67
2019-03-08T17:57:55.562Z,99908.92
2019-03-08T18:00:29.896Z,99915.83
2019-03-08T18:03:11.671Z,99912.47
2019-03-08T18:05:49.631Z,99911.02
2019-03-08T18:08:25.164Z,99913.53
2019-03-08T18:11:09.740Z,99912.65
2019-03-08T18:13:46.850Z,99924.27
2019-03-08T18:16:36.546Z,99940.77
2019-03-08T18:19:28.311Z,99957.05
2019-03-08T18:22:14.419Z,99962.43
2019-03-08T18:25:03.995Z,99988.94
2019-03-08T18:27:42.211Z,100033.90
2019-03-08T18:30:34.732Z,100015.47
2019-03-08T18:33:11.755Z,100034.90
2019-03-08T18:36:11.963Z,100027.72
2019-03-08T18:38:46.668Z,100032.09
2019-03-08T18:41:43.693Z,100018.33
2019-03-08T18:44:19.887Z,100023.17
2019-03-08T18:46:58.556Z,100023.94
2019-03-08T18:49:38.545Z,100016.41
2019-03-08T18:52:13.148Z,100007.43
2019-03-08T18:54:53.897Z,100005.86
2019-03-08T18:57:27.629Z,99999.42
2019-03-08T19:00:00.635Z,99994.59
2019-03-08T19:02:33.375Z,99986.13
2019-03-08T19:05:08.088Z,99991.50
2019-03-08T19:07:52.075Z,99993.27
2019-03-08T19:10:32.396Z,99988.15
2019-03-08T19:13:05.139Z,99981.75
2019-03-08T19:15:40.829Z,99973.05
2019-03-08T19:18:30.052Z,99970.05
2019-03-08T19:21:11.899Z,99972.44
2019-03-08T19:23:44.566Z,99975.41
2019-03-08T19:26:19.958Z,99970.41
2019-03-08T19:28:52.675Z,99971.13
2019-03-08T19:31:29.529Z,99983.34
2019-03-08T19:34:15.389Z,99982.33
2019-03-08T19:37:06.593Z,99974.07
2019-03-08T19:39:39.326Z,99978.26
2019-03-08T19:42:14.835Z,99971.16
2019-03-08T19:44:53.244Z,99974.84
2019-03-08T19:47:37.750Z,99972.89
2019-03-08T19:50:11.804Z,99975.05
2019-03-08T19:52:44.669Z,99974.75
2019-03-08T19:55:17.473Z,99975.23
2019-03-08T19:57:54.405Z,99978.85
2019-03-08T20:00:44.399Z,99974.75
2019-03-08T20:03:20.515Z,99975.38
2019-03-08T20:06:05.287Z,99971.07
2019-03-08T20:08:47.556Z,99977.13
2019-03-08T20:11:32.514Z,99974.55
2019-03-08T20:14:25.320Z,99973.92
2019-03-08T20:17:04.651Z,99978.80
2019-03-08T20:19:55.293Z,99974.41
2019-03-08T20:22:29.098Z,99975.17
2019-03-08T20:25:19.935Z,99980.13
2019-03-08T20:28:00.075Z,99985.23
2019-03-08T20:30:49.447Z,99989.03
2019-03-08T20:33:44.559Z,99986.12
2019-03-08T20:36:39.017Z,99985.34
2019-03-08T20:39:33.610Z,99985.96
2019-03-08T20:42:09.316Z,99994.75
2019-03-08T20:44:44.568Z,99993.59
2019-03-08T20:47:36.176Z,99995.55
2019-03-08T20:50:20.861Z,99992.32
2019-03-08T20:53:01.271Z,99992.55
2019-03-08T20:55:42.668Z,99996.62
2019-03-08T20:58:16.137Z,99999.72
2019-03-08T21:00:53.866Z,100000.88
2019-03-08T21:03:41.778Z,100008.98
2019-03-08T21:09:21.701Z,100017.32
2019-03-08T21:14:51.931Z,100018.19
2019-03-08T21:17:38.494Z,100030.28
2019-03-08T21:20:28.917Z,100032.24
2019-03-08T21:23:01.855Z,100030.96
2019-03-08T21:25:42.406Z,100031.00
2019-03-08T21:28:20.642Z,100032.54
2019-03-08T21:30:55.660Z,100026.08
2019-03-08T21:33:26.892Z,100029.62
2019-03-08T21:35:59.997Z,100037.26
2019-03-08T21:38:33.384Z,100035.54
2019-03-08T21:41:04.747Z,100035.78
2019-03-08T21:43:46.998Z,100042.85
2019-03-08T21:46:27.256Z,100036.02
2019-03-08T21:49:00.345Z,100026.18
2019-03-08T21:51:33.598Z,100049.59
2019-03-08T21:54:26.180Z,100053.31
2019-03-08T21:57:18.305Z,100050.25
2019-03-08T22:00:26.087Z,100044.81
2019-03-08T22:03:08.260Z,100050.48
2019-03-08T22:05:43.410Z,100051.33
2019-03-08T22:08:17.761Z,100051.36
2019-03-08T22:11:05.949Z,100056.09
2019-03-08T22:13:41.233Z,100052.45
2019-03-08T22:16:12.323Z,100057.08
2019-03-08T22:18:43.439Z,100051.20
2019-03-08T22:21:15.262Z,100059.45
2019-03-08T22:23:49.242Z,100053.72
2019-03-08T22:26:20.222Z,100061.50
2019-03-08T22:28:54.355Z,100064.63
2019-03-08T22:31:25.275Z,100064.11
2019-03-08T22:33:56.301Z,100067.54
2019-03-08T22:36:27.494Z,100079.88
2019-03-08T22:38:59.336Z,100075.73
2019-03-08T22:41:30.461Z,100075.19
2019-03-08T22:44:01.419Z,100086.48
2019-03-08T22:46:32.342Z,100096.93
2019-03-08T22:49:06.047Z,100094.97
2019-03-08T22:51:37.093Z,100090.72
2019-03-08T22:54:08.257Z,100092.06
2019-03-08T22:56:39.274Z,100097.71
2019-03-08T22:59:10.547Z,100098.19
2019-03-08T23:01:43.064Z,100099.44
2019-03-08T23:04:15.392Z,100102.42
2019-03-08T23:06:51.216Z,100102.86
2019-03-08T23:09:24.103Z,100103.58
2019-03-08T23:11:57.051Z,100108.11
2019-03-08T23:14:29.739Z,100105.00
2019-03-08T23:17:00.714Z,100119.43
2019-03-08T23:19:33.433Z,100122.88
2019-03-08T23:22:04.368Z,100123.52
2019-03-08T23:24:37.004Z,100127.18
2019-03-08T23:27:09.552Z,100132.32
2019-03-08T23:29:44.907Z,100129.13
2019-03-08T23:32:22.161Z,100133.27
2019-03-08T23:34:53.095Z,100132.84
2019-03-08T23:37:27.485Z,100130.27
2019-03-08T23:39:59.369Z,100142.91
2019-03-08T23:42:35.073Z,100144.63
2019-03-08T23:45:10.489Z,100138.52
2019-03-08T23:47:41.471Z,100138.36
2019-03-08T23:50:12.392Z,100148.53
2019-03-08T23:52:45.228Z,100146.77
2019-03-08T23:55:16.287Z,100138.84
2019-03-08T23:57:47.549Z,100140.15
